LEMD

Madrid Barajas International Airport

ICAO Code LEMD
IATA Code MAD
Name Madrid Barajas International Airport
Location Madrid, Madrid, ES
Elevation 2001 Feet / 609.9 Meters
Latitude 40.49360000
Longitude -3.56676000
METAR LEMD 240530Z 02003KT 9999 BKN050 02/00 Q1026 NOSIG
Extra information Display Charts and CFS
Display NOTAMS
Runway Length Width Surface Elevation
14L 11483 ft 197 ft ASP 1942 ft
14R 13084 ft 197 ft ASP 1995 ft
18L 11483 ft 197 ft ASP 1919 ft
18R 13711 ft 197 ft ASP 1998 ft
32R 11483 ft 197 ft ASP 1876 ft
32L 13084 ft 197 ft ASP 1909 ft
36R 11483 ft 197 ft ASP 1942 ft
36L 13711 ft 197 ft ASP 1985 ft